METAR Data
IDs: Format: Raw Decoded Include TAF

Data at: 1351 UTC 07 Jul 2020

KMOR 071335Z AUTO 09005KT 10SM CLR 25/20 A3005 RMK A01
KMOR 071315Z AUTO 11007KT 10SM CLR 24/20 A3004 RMK A01
KMOR 071255Z AUTO 09004KT 10SM CLR 24/20 A3004 RMK A01
KMOR 071235Z AUTO 09004KT 10SM CLR 24/20 A3003 RMK A01
KMOR 071215Z AUTO 09004KT 10SM CLR 23/20 A3003 RMK A01
KMOR 071155Z AUTO 00000KT 10SM CLR 23/20 A3003 RMK A01
KMOR 071135Z AUTO 00000KT 10SM CLR 22/19 A3003 RMK A01
KMOR 071115Z AUTO 09004KT 10SM CLR 22/20 A3003 RMK A01
KMOR 071055Z AUTO 00000KT 10SM CLR 22/20 A3002 RMK A01
KMOR 071035Z AUTO 00000KT 10SM CLR 21/20 A3002 RMK A01
KMOR 071015Z AUTO 00000KT 10SM CLR 22/20 A3002 RMK A01
KMOR 070955Z AUTO 00000KT 10SM CLR 22/20 A3002 RMK A01
KMOR 070935Z AUTO 00000KT 10SM CLR 22/20 A3002 RMK A01
KMOR 070915Z AUTO 08003KT 10SM CLR 22/19 A3002 RMK A01
KMOR 070855Z AUTO 00000KT 10SM CLR 22/19 A3002 RMK A01
KMOR 070835Z AUTO 08003KT 10SM CLR 22/20 A3002 RMK A01
KMOR 070815Z AUTO 00000KT 10SM FEW045 23/19 A3002 RMK A01
KMOR 070755Z AUTO 00000KT 10SM SCT046 23/19 A3002 RMK A01
KMOR 070735Z AUTO 00000KT 10SM BKN046 23/19 A3003 RMK A01
KMOR 070715Z AUTO 00000KT 10SM BKN044 23/19 A3003 RMK A01
KMOR 070655Z AUTO 10004KT 10SM OVC044 24/19 A3003 RMK A01
KMOR 070635Z AUTO 00000KT 10SM SCT044 SCT050 24/19 A3003 RMK A01
KMOR 070615Z AUTO 00000KT 10SM CLR 24/19 A3003 RMK A01
KMOR 070555Z AUTO 00000KT 10SM CLR 24/19 A3004 RMK A01
KMOR 070535Z AUTO 00000KT 10SM FEW080 24/19 A3004 RMK A01
KMOR 070515Z AUTO 09003KT 10SM CLR 24/19 A3004 RMK A01
KMOR 070455Z AUTO 00000KT 10SM CLR 24/19 A3004 RMK A01
KMOR 070435Z AUTO 00000KT 10SM CLR 24/19 A3005 RMK A01
KMOR 070415Z AUTO 09003KT 10SM CLR 24/19 A3004 RMK A01
KMOR 070355Z AUTO 00000KT 10SM CLR 25/19 A3005 RMK A01
KMOR 070335Z AUTO 10006KT 10SM CLR 25/19 A3004 RMK A01
KMOR 070315Z AUTO 12007KT 10SM CLR 25/19 A3003 RMK A01
KMOR 070255Z AUTO 13006G13KT 10SM CLR 26/19 A3004 RMK A01
KMOR 070235Z AUTO 12009KT 10SM CLR 26/19 A3003 RMK A01
KMOR 070215Z AUTO 11010G17KT 10SM CLR 26/19 A3003 RMK A01
KMOR 070155Z AUTO 12008KT 10SM SCT100 26/19 A3002 RMK A01
KMOR 070135Z AUTO 14009KT 10SM BKN100 27/19 A3002 RMK A01
KMOR 070115Z AUTO 14010KT 10SM OVC090 27/19 A3002 RMK A01
KMOR 070055Z AUTO 13007G14KT 10SM BKN085 28/19 A3001 RMK A01
KMOR 070035Z AUTO 12009KT 10SM CLR 28/19 A3000 RMK A01
KMOR 070015Z AUTO 13008KT 10SM CLR 29/19 A3000 RMK A01
KMOR 062355Z AUTO 13007G13KT 10SM CLR 29/19 A3000 RMK A01
KMOR 062335Z AUTO 13006G12KT 10SM CLR 30/19 A2999 RMK A01
KMOR 062315Z AUTO 13008KT 10SM CLR 30/19 A3000 RMK A01
KMOR 062255Z AUTO 11008KT 10SM CLR 30/19 A3000 RMK A01
KMOR 062235Z AUTO 13010KT 10SM CLR 30/19 A3000 RMK A01
KMOR 062215Z AUTO 12007KT 10SM CLR 31/19 A3000 RMK A01
KMOR 062155Z AUTO 10008KT 060V130 10SM CLR 31/19 A2999 RMK A01
KMOR 062135Z AUTO 10006G14KT 10SM CLR 31/19 A3000 RMK A01
KMOR 062115Z AUTO 10007KT 10SM CLR 31/18 A3000 RMK A01
KMOR 062055Z AUTO VRB05G12KT 10SM CLR 31/18 A3001 RMK A01
KMOR 062035Z AUTO 11010KT 10SM CLR 31/18 A3001 RMK A01
KMOR 062015Z AUTO 12005G12KT 10SM CLR 30/18 A3002 RMK A01
KMOR 061955Z AUTO 10007KT 10SM CLR 30/18 A3003 RMK A01
KMOR 061935Z AUTO 11008KT 10SM CLR 30/19 A3003 RMK A01
KMOR 061915Z AUTO VRB05KT 10SM CLR 30/20 A3004 RMK A01
KMOR 061855Z AUTO 13005KT 10SM CLR 29/19 A3004 RMK A01
KMOR 061835Z AUTO 13006KT 10SM CLR 29/19 A3004 RMK A01
KMOR 061815Z AUTO 14007KT 10SM CLR 30/19 A3005 RMK A01
KMOR 061755Z AUTO 13007KT 10SM CLR 29/19 A3006 RMK A01
KMOR 061735Z AUTO 14006KT 10SM CLR 29/19 A3007 RMK A01
KMOR 061715Z AUTO 15006G11KT 10SM CLR 29/18 A3007 RMK A01
KMOR 061655Z AUTO 11006G11KT 10SM CLR 29/18 A3007 RMK A01
KMOR 061635Z AUTO 13006KT 10SM CLR 30/19 A3008 RMK A01
KMOR 061615Z AUTO 11007KT 10SM CLR 29/17 A3008 RMK A01
KMOR 061555Z AUTO VRB06G11KT 10SM CLR 29/19 A3008 RMK A01
KMOR 061535Z AUTO VRB05G12KT 10SM CLR 29/19 A3007 RMK A01
KMOR 061515Z AUTO 15005KT 10SM CLR 29/20 A3008 RMK A01
KMOR 061455Z AUTO VRB06KT 080V160 10SM CLR 29/19 A3007 RMK A01
KMOR 061435Z AUTO 13006KT 10SM CLR 28/20 A3007 RMK A01
KMOR 061415Z AUTO 00000KT 10SM CLR 28/20 A3007 RMK A01
KMOR 061355Z AUTO 00000KT 10SM CLR 27/21 A3007 RMK A01
KMOR 061335Z AUTO 12004KT 10SM CLR 27/21 A3006 RMK A01
KMOR 061315Z AUTO 13004KT 10SM CLR 26/21 A3006 RMK A01
KMOR 061255Z AUTO VRB04KT 10SM CLR 25/21 A3006 RMK A01
KMOR 061235Z AUTO 11003KT 10SM CLR 25/21 A3006 RMK A01
KMOR 061215Z AUTO 00000KT 10SM CLR 24/21 A3006 RMK A01
KMOR 061155Z AUTO 00000KT 10SM CLR 23/21 A3005 RMK A01
KMOR 061135Z AUTO 00000KT 10SM CLR 23/21 A3005 RMK A01
KMOR 061115Z AUTO 00000KT 9SM CLR 21/21 A3004 RMK A01
KMOR 061055Z AUTO 00000KT 9SM CLR 21/21 A3004 RMK A01
KMOR 061035Z AUTO 06003KT 10SM CLR 21/21 A3004 RMK A01
KMOR 061015Z AUTO VRB04KT 10SM CLR 22/21 A3003 RMK A01
KMOR 060955Z AUTO 00000KT 10SM CLR 22/21 A3002 RMK A01
KMOR 060935Z AUTO 00000KT 10SM FEW049 FEW060 22/21 A3002 RMK A01
KMOR 060915Z AUTO 06004KT 10SM SCT060 22/21 A3001 RMK A01
KMOR 060855Z AUTO 06003KT 10SM FEW060 22/21 A2999 RMK A01
KMOR 060835Z AUTO 00000KT 10SM FEW060 22/22 A2999 RMK A01
KMOR 060815Z AUTO 00000KT 10SM FEW050 22/22 A2998 RMK A01
KMOR 060755Z AUTO 12004KT 9SM FEW050 21/21 A2999 RMK A01
KMOR 060735Z AUTO 05004KT 9SM FEW055 22/22 A2998 RMK A01
KMOR 060715Z AUTO 03003KT 8SM FEW055 FEW065 22/22 A2999 RMK A01
KMOR 060655Z AUTO 00000KT 8SM FEW060 22/22 A3000 RMK A01
KMOR 060635Z AUTO 03003KT 6SM BR FEW060 22/22 A3000 RMK A01
KMOR 060615Z AUTO 00000KT 9SM SCT060 23/22 A3001 RMK A01
KMOR 060555Z AUTO 00000KT 7SM SCT060 23/23 A3001 RMK A01
KMOR 060535Z AUTO 00000KT 10SM FEW060 23/23 A3002 RMK A01
KMOR 060515Z AUTO 00000KT 10SM SCT065 23/23 A3002 RMK A01
KMOR 060455Z AUTO 00000KT 10SM FEW060 23/23 A3003 RMK A01
KMOR 060435Z AUTO 00000KT 10SM CLR 23/23 A3003 RMK A01
KMOR 060415Z AUTO 00000KT 8SM FEW065 23/23 A3002 RMK A01
KMOR 060355Z AUTO 00000KT 10SM FEW070 23/23 A3002 RMK A01
KMOR 060335Z AUTO 00000KT 10SM CLR 24/24 A3002 RMK A01
KMOR 060315Z AUTO 00000KT 10SM FEW070 24/23 A3002 RMK A01
KMOR 060255Z AUTO 00000KT 10SM CLR 24/23 A3002 RMK A01
KMOR 060235Z AUTO 00000KT 10SM CLR 24/24 A3002 RMK A01
KMOR 060215Z AUTO 00000KT 10SM CLR 24/24 A3001 RMK A01
KMOR 060155Z AUTO 00000KT 10SM CLR 25/23 A3000 RMK A01